sensor_id;sensor_type;location;lat;lon;timestamp;pressure;altitude;pressure_sealevel;temperature;humidity
71778;BME280;59609;52.430;4.668;2023-04-20T00:00:58;102520.25;;;8.41;64.35
71778;BME280;59609;52.430;4.668;2023-04-20T00:03:23;102519.50;;;8.39;65.06
71778;BME280;59609;52.430;4.668;2023-04-20T00:05:48;102516.72;;;8.26;65.56
71778;BME280;59609;52.430;4.668;2023-04-20T00:08:15;102510.91;;;8.18;65.61
71778;BME280;59609;52.430;4.668;2023-04-20T00:10:42;102509.56;;;8.24;65.83
71778;BME280;59609;52.430;4.668;2023-04-20T00:13:08;102507.94;;;8.21;65.29
71778;BME280;59609;52.430;4.668;2023-04-20T00:15:33;102497.06;;;8.07;65.88
71778;BME280;59609;52.430;4.668;2023-04-20T00:17:58;102496.22;;;8.07;65.89
71778;BME280;59609;52.430;4.668;2023-04-20T00:20:24;102495.00;;;7.98;66.81
71778;BME280;59609;52.430;4.668;2023-04-20T00:22:50;102494.91;;;8.00;66.27
71778;BME280;59609;52.430;4.668;2023-04-20T00:25:15;102492.47;;;7.95;65.81
71778;BME280;59609;52.430;4.668;2023-04-20T00:27:40;102491.03;;;8.02;65.56
71778;BME280;59609;52.430;4.668;2023-04-20T00:30:06;102483.03;;;7.99;66.15
71778;BME280;59609;52.430;4.668;2023-04-20T00:32:32;102482.59;;;7.93;65.52
71778;BME280;59609;52.430;4.668;2023-04-20T00:34:58;102480.97;;;7.90;66.30
71778;BME280;59609;52.430;4.668;2023-04-20T00:37:23;102480.53;;;7.84;66.35
71778;BME280;59609;52.430;4.668;2023-04-20T00:39:50;102477.88;;;7.82;66.70
71778;BME280;59609;52.430;4.668;2023-04-20T00:42:15;102467.56;;;7.73;67.16
71778;BME280;59609;52.430;4.668;2023-04-20T00:44:41;102470.41;;;7.71;67.51
71778;BME280;59609;52.430;4.668;2023-04-20T00:47:06;102468.44;;;7.73;68.08
71778;BME280;59609;52.430;4.668;2023-04-20T00:49:31;102469.63;;;7.69;67.91
71778;BME280;59609;52.430;4.668;2023-04-20T00:51:58;102465.78;;;7.59;69.06
71778;BME280;59609;52.430;4.668;2023-04-20T00:54:25;102459.19;;;7.62;68.62
71778;BME280;59609;52.430;4.668;2023-04-20T00:56:51;102460.75;;;7.53;69.35
71778;BME280;59609;52.430;4.668;2023-04-20T00:59:16;102449.78;;;7.53;69.30
71778;BME280;59609;52.430;4.668;2023-04-20T01:01:42;102444.28;;;7.53;69.07
71778;BME280;59609;52.430;4.668;2023-04-20T01:04:08;102440.88;;;7.50;69.83
71778;BME280;59609;52.430;4.668;2023-04-20T01:06:33;102446.16;;;7.53;70.13
71778;BME280;59609;52.430;4.668;2023-04-20T01:08:59;102447.78;;;7.43;70.45
71778;BME280;59609;52.430;4.668;2023-04-20T01:11:24;102436.59;;;7.33;71.50
71778;BME280;59609;52.430;4.668;2023-04-20T01:13:50;102439.66;;;7.41;71.03
71778;BME280;59609;52.430;4.668;2023-04-20T01:16:15;102431.75;;;7.37;71.37
71778;BME280;59609;52.430;4.668;2023-04-20T01:18:46;102425.28;;;7.38;70.69
71778;BME280;59609;52.430;4.668;2023-04-20T01:21:17;102417.69;;;7.29;71.36
71778;BME280;59609;52.430;4.668;2023-04-20T01:23:43;102411.47;;;7.39;71.39
71778;BME280;59609;52.430;4.668;2023-04-20T01:26:10;102402.34;;;7.39;71.44
71778;BME280;59609;52.430;4.668;2023-04-20T01:28:36;102400.72;;;7.36;71.26
71778;BME280;59609;52.430;4.668;2023-04-20T01:31:03;102402.03;;;7.43;70.76
71778;BME280;59609;52.430;4.668;2023-04-20T01:33:29;102388.22;;;7.32;72.08
71778;BME280;59609;52.430;4.668;2023-04-20T01:35:54;102389.63;;;7.38;71.82
71778;BME280;59609;52.430;4.668;2023-04-20T01:38:22;102393.59;;;7.34;71.86
71778;BME280;59609;52.430;4.668;2023-04-20T01:40:48;102386.78;;;7.39;72.32
71778;BME280;59609;52.430;4.668;2023-04-20T01:43:13;102379.31;;;7.41;71.51
71778;BME280;59609;52.430;4.668;2023-04-20T01:45:39;102383.28;;;7.37;72.42
71778;BME280;59609;52.430;4.668;2023-04-20T01:48:05;102370.78;;;7.33;73.06
71778;BME280;59609;52.430;4.668;2023-04-20T01:50:30;102374.94;;;7.39;73.07
71778;BME280;59609;52.430;4.668;2023-04-20T01:52:55;102373.19;;;7.38;73.21
71778;BME280;59609;52.430;4.668;2023-04-20T01:55:21;102370.34;;;7.39;72.93
71778;BME280;59609;52.430;4.668;2023-04-20T01:57:46;102363.22;;;7.37;73.71
71778;BME280;59609;52.430;4.668;2023-04-20T02:00:14;102366.50;;;7.42;73.86
71778;BME280;59609;52.430;4.668;2023-04-20T02:02:40;102368.13;;;7.44;73.78
71778;BME280;59609;52.430;4.668;2023-04-20T02:05:05;102363.09;;;7.51;73.29
71778;BME280;59609;52.430;4.668;2023-04-20T02:07:31;102347.97;;;7.45;73.47
71778;BME280;59609;52.430;4.668;2023-04-20T02:09:56;102355.66;;;7.53;73.45
71778;BME280;59609;52.430;4.668;2023-04-20T02:12:21;102353.44;;;7.58;73.34
71778;BME280;59609;52.430;4.668;2023-04-20T02:14:47;102346.88;;;7.60;73.70
71778;BME280;59609;52.430;4.668;2023-04-20T02:17:12;102350.59;;;7.59;73.83
71778;BME280;59609;52.430;4.668;2023-04-20T02:19:38;102337.88;;;7.58;74.38
71778;BME280;59609;52.430;4.668;2023-04-20T02:22:03;102334.13;;;7.59;74.31
71778;BME280;59609;52.430;4.668;2023-04-20T02:24:29;102330.41;;;7.73;74.29
71778;BME280;59609;52.430;4.668;2023-04-20T02:26:54;102331.06;;;7.76;73.76
71778;BME280;59609;52.430;4.668;2023-04-20T02:29:20;102322.22;;;7.84;73.98
71778;BME280;59609;52.430;4.668;2023-04-20T02:31:45;102321.91;;;7.89;73.82
71778;BME280;59609;52.430;4.668;2023-04-20T02:34:10;102319.50;;;7.84;74.06
71778;BME280;59609;52.430;4.668;2023-04-20T02:36:36;102319.59;;;7.95;73.24
71778;BME280;59609;52.430;4.668;2023-04-20T02:39:01;102319.75;;;8.05;73.17
71778;BME280;59609;52.430;4.668;2023-04-20T02:41:27;102312.19;;;8.08;72.96
71778;BME280;59609;52.430;4.668;2023-04-20T02:43:53;102290.00;;;8.11;72.32
71778;BME280;59609;52.430;4.668;2023-04-20T02:46:19;102314.34;;;8.16;72.43
71778;BME280;59609;52.430;4.668;2023-04-20T02:48:44;102304.91;;;8.20;72.31
71778;BME280;59609;52.430;4.668;2023-04-20T02:51:10;102300.91;;;8.37;71.63
71778;BME280;59609;52.430;4.668;2023-04-20T02:53:35;102287.69;;;8.42;70.93
71778;BME280;59609;52.430;4.668;2023-04-20T02:56:00;102296.00;;;8.29;71.84
71778;BME280;59609;52.430;4.668;2023-04-20T02:58:26;102290.16;;;8.34;71.25
71778;BME280;59609;52.430;4.668;2023-04-20T03:00:51;102288.75;;;8.28;71.62
71778;BME280;59609;52.430;4.668;2023-04-20T03:03:17;102277.88;;;8.26;72.13
71778;BME280;59609;52.430;4.668;2023-04-20T03:05:44;102283.91;;;8.32;71.27
71778;BME280;59609;52.430;4.668;2023-04-20T03:08:09;102281.31;;;8.41;71.76
71778;BME280;59609;52.430;4.668;2023-04-20T03:10:34;102271.63;;;8.48;71.37
71778;BME280;59609;52.430;4.668;2023-04-20T03:13:00;102272.91;;;8.55;71.28
71778;BME280;59609;52.430;4.668;2023-04-20T03:15:25;102270.88;;;8.46;71.69
71778;BME280;59609;52.430;4.668;2023-04-20T03:17:50;102256.72;;;8.63;71.31
71778;BME280;59609;52.430;4.668;2023-04-20T03:20:16;102254.84;;;8.75;71.85
71778;BME280;59609;52.430;4.668;2023-04-20T03:22:42;102255.25;;;8.70;71.91
71778;BME280;59609;52.430;4.668;2023-04-20T03:25:07;102250.13;;;8.77;71.54
71778;BME280;59609;52.430;4.668;2023-04-20T03:27:33;102244.78;;;8.98;71.54
71778;BME280;59609;52.430;4.668;2023-04-20T03:29:58;102242.03;;;8.98;72.15
71778;BME280;59609;52.430;4.668;2023-04-20T03:32:24;102229.56;;;9.05;72.35
71778;BME280;59609;52.430;4.668;2023-04-20T03:34:50;102236.31;;;9.12;72.74
71778;BME280;59609;52.430;4.668;2023-04-20T03:37:16;102237.09;;;9.14;72.43
71778;BME280;59609;52.430;4.668;2023-04-20T03:39:41;102226.56;;;9.19;72.81
71778;BME280;59609;52.430;4.668;2023-04-20T03:42:07;102234.59;;;9.33;72.60
71778;BME280;59609;52.430;4.668;2023-04-20T03:44:32;102224.59;;;9.43;73.10
71778;BME280;59609;52.430;4.668;2023-04-20T03:46:57;102227.44;;;9.42;74.09
71778;BME280;59609;52.430;4.668;2023-04-20T03:49:23;102215.81;;;9.49;73.26
71778;BME280;59609;52.430;4.668;2023-04-20T03:51:50;102214.72;;;9.41;74.28
71778;BME280;59609;52.430;4.668;2023-04-20T03:54:15;102215.56;;;9.63;72.79
71778;BME280;59609;52.430;4.668;2023-04-20T03:56:41;102209.06;;;9.53;73.17
71778;BME280;59609;52.430;4.668;2023-04-20T03:59:06;102209.19;;;9.63;72.18
71778;BME280;59609;52.430;4.668;2023-04-20T04:01:31;102198.94;;;9.54;72.97
71778;BME280;59609;52.430;4.668;2023-04-20T04:03:57;102212.91;;;9.51;72.75
71778;BME280;59609;52.430;4.668;2023-04-20T04:06:22;102199.41;;;9.59;72.29
71778;BME280;59609;52.430;4.668;2023-04-20T04:08:48;102195.84;;;9.47;72.32
71778;BME280;59609;52.430;4.668;2023-04-20T04:11:13;102190.56;;;9.44;73.22
71778;BME280;59609;52.430;4.668;2023-04-20T04:13:38;102193.97;;;9.37;73.81
71778;BME280;59609;52.430;4.668;2023-04-20T04:16:04;102181.94;;;9.38;75.27
71778;BME280;59609;52.430;4.668;2023-04-20T04:18:30;102179.19;;;9.38;75.41
71778;BME280;59609;52.430;4.668;2023-04-20T04:20:59;102177.06;;;9.19;77.08
71778;BME280;59609;52.430;4.668;2023-04-20T04:23:24;102168.31;;;9.25;76.62
71778;BME280;59609;52.430;4.668;2023-04-20T04:25:50;102179.19;;;9.04;77.71
71778;BME280;59609;52.430;4.668;2023-04-20T04:28:15;102169.81;;;9.18;77.61
71778;BME280;59609;52.430;4.668;2023-04-20T04:30:41;102163.81;;;9.24;77.52
71778;BME280;59609;52.430;4.668;2023-04-20T04:33:07;102167.19;;;9.27;77.45
71778;BME280;59609;52.430;4.668;2023-04-20T04:35:34;102158.31;;;9.24;77.40
71778;BME280;59609;52.430;4.668;2023-04-20T04:37:59;102154.56;;;9.25;78.17
71778;BME280;59609;52.430;4.668;2023-04-20T04:40:25;102150.47;;;9.30;77.83
71778;BME280;59609;52.430;4.668;2023-04-20T04:42:50;102147.31;;;9.24;78.38
71778;BME280;59609;52.430;4.668;2023-04-20T04:45:16;102147.31;;;9.24;78.18
71778;BME280;59609;52.430;4.668;2023-04-20T04:47:42;102145.34;;;9.15;79.95
71778;BME280;59609;52.430;4.668;2023-04-20T04:50:08;102146.56;;;9.33;79.42
71778;BME280;59609;52.430;4.668;2023-04-20T04:52:35;102148.69;;;9.41;79.43
71778;BME280;59609;52.430;4.668;2023-04-20T04:55:01;102141.97;;;9.34;79.95
71778;BME280;59609;52.430;4.668;2023-04-20T04:57:27;102139.41;;;9.42;80.71
71778;BME280;59609;52.430;4.668;2023-04-20T04:59:52;102151.19;;;9.44;80.94
71778;BME280;59609;52.430;4.668;2023-04-20T05:02:18;102147.31;;;9.46;81.13
71778;BME280;59609;52.430;4.668;2023-04-20T05:04:44;102152.03;;;9.55;81.19
71778;BME280;59609;52.430;4.668;2023-04-20T05:07:09;102157.00;;;9.61;81.67
71778;BME280;59609;52.430;4.668;2023-04-20T05:09:37;102144.75;;;9.65;81.46
71778;BME280;59609;52.430;4.668;2023-04-20T05:12:03;102125.50;;;9.54;82.72
71778;BME280;59609;52.430;4.668;2023-04-20T05:14:32;102135.34;;;9.68;81.91
71778;BME280;59609;52.430;4.668;2023-04-20T05:16:58;102133.75;;;9.65;83.01
71778;BME280;59609;52.430;4.668;2023-04-20T05:19:24;102146.25;;;9.58;83.27
71778;BME280;59609;52.430;4.668;2023-04-20T05:21:50;102152.38;;;9.62;83.43
71778;BME280;59609;52.430;4.668;2023-04-20T05:24:15;102140.59;;;9.71;83.05
71778;BME280;59609;52.430;4.668;2023-04-20T05:26:41;102146.00;;;9.61;83.03
71778;BME280;59609;52.430;4.668;2023-04-20T05:29:07;102133.97;;;9.73;83.33
71778;BME280;59609;52.430;4.668;2023-04-20T05:31:32;102131.69;;;9.78;82.74
71778;BME280;59609;52.430;4.668;2023-04-20T05:33:58;102130.41;;;9.94;81.59
71778;BME280;59609;52.430;4.668;2023-04-20T05:36:23;102123.94;;;10.04;80.76
71778;BME280;59609;52.430;4.668;2023-04-20T05:38:49;102124.97;;;10.03;80.49
71778;BME280;59609;52.430;4.668;2023-04-20T05:41:14;102122.84;;;10.07;79.43
71778;BME280;59609;52.430;4.668;2023-04-20T05:43:39;102116.91;;;10.22;78.31
71778;BME280;59609;52.430;4.668;2023-04-20T05:46:05;102116.69;;;10.14;78.52
71778;BME280;59609;52.430;4.668;2023-04-20T05:48:30;102117.13;;;10.30;76.39
71778;BME280;59609;52.430;4.668;2023-04-20T05:50:56;102121.25;;;10.25;76.31
71778;BME280;59609;52.430;4.668;2023-04-20T05:53:21;102127.94;;;10.43;74.58
71778;BME280;59609;52.430;4.668;2023-04-20T05:55:47;102124.50;;;10.51;73.78
71778;BME280;59609;52.430;4.668;2023-04-20T05:58:12;102119.72;;;10.53;72.65
71778;BME280;59609;52.430;4.668;2023-04-20T06:00:38;102129.81;;;10.63;72.13
71778;BME280;59609;52.430;4.668;2023-04-20T06:03:03;102122.22;;;10.56;72.10
71778;BME280;59609;52.430;4.668;2023-04-20T06:05:28;102119.84;;;10.51;70.24
71778;BME280;59609;52.430;4.668;2023-04-20T06:07:54;102134.50;;;10.52;69.48
71778;BME280;59609;52.430;4.668;2023-04-20T06:10:19;102115.38;;;10.50;69.41
71778;BME280;59609;52.430;4.668;2023-04-20T06:12:45;102116.31;;;10.60;68.88
71778;BME280;59609;52.430;4.668;2023-04-20T06:15:11;102111.13;;;10.67;68.21
71778;BME280;59609;52.430;4.668;2023-04-20T06:17:37;102115.41;;;10.80;67.12
71778;BME280;59609;52.430;4.668;2023-04-20T06:20:06;102115.13;;;10.83;66.40
71778;BME280;59609;52.430;4.668;2023-04-20T06:22:31;102122.75;;;10.70;65.95
71778;BME280;59609;52.430;4.668;2023-04-20T06:24:57;102114.81;;;10.56;65.15
71778;BME280;59609;52.430;4.668;2023-04-20T06:27:24;102127.13;;;10.52;64.52
71778;BME280;59609;52.430;4.668;2023-04-20T06:29:50;102115.75;;;10.46;65.01
71778;BME280;59609;52.430;4.668;2023-04-20T06:32:16;102117.25;;;10.29;64.57
71778;BME280;59609;52.430;4.668;2023-04-20T06:34:41;102118.91;;;10.41;64.24
71778;BME280;59609;52.430;4.668;2023-04-20T06:37:07;102119.00;;;10.51;64.11
71778;BME280;59609;52.430;4.668;2023-04-20T06:39:33;102106.13;;;10.61;63.63
71778;BME280;59609;52.430;4.668;2023-04-20T06:41:59;102110.03;;;10.58;63.18
71778;BME280;59609;52.430;4.668;2023-04-20T06:44:25;102098.34;;;10.45;64.10
71778;BME280;59609;52.430;4.668;2023-04-20T06:46:50;102097.06;;;10.49;66.34
71778;BME280;59609;52.430;4.668;2023-04-20T06:49:15;102088.88;;;10.59;67.03
71778;BME280;59609;52.430;4.668;2023-04-20T06:51:41;102094.97;;;10.62;66.77
71778;BME280;59609;52.430;4.668;2023-04-20T06:54:07;102103.44;;;10.70;66.15
71778;BME280;59609;52.430;4.668;2023-04-20T06:56:32;102106.28;;;10.59;66.27
71778;BME280;59609;52.430;4.668;2023-04-20T06:58:57;102110.72;;;10.51;68.05
71778;BME280;59609;52.430;4.668;2023-04-20T07:01:23;102115.81;;;10.34;68.75
71778;BME280;59609;52.430;4.668;2023-04-20T07:03:48;102111.47;;;10.32;70.73
71778;BME280;59609;52.430;4.668;2023-04-20T07:06:14;102110.78;;;10.19;70.65
71778;BME280;59609;52.430;4.668;2023-04-20T07:08:41;102098.66;;;10.10;71.08
71778;BME280;59609;52.430;4.668;2023-04-20T07:11:06;102106.44;;;10.05;73.83
71778;BME280;59609;52.430;4.668;2023-04-20T07:13:32;102107.78;;;9.90;74.84
71778;BME280;59609;52.430;4.668;2023-04-20T07:15:57;102108.84;;;9.99;76.28
71778;BME280;59609;52.430;4.668;2023-04-20T07:18:23;102109.06;;;9.75;76.61
71778;BME280;59609;52.430;4.668;2023-04-20T07:20:48;102098.69;;;9.67;75.43
71778;BME280;59609;52.430;4.668;2023-04-20T07:23:14;102116.25;;;9.66;75.90
71778;BME280;59609;52.430;4.668;2023-04-20T07:25:39;102098.59;;;9.69;75.37
71778;BME280;59609;52.430;4.668;2023-04-20T07:28:05;102114.16;;;9.91;75.49
71778;BME280;59609;52.430;4.668;2023-04-20T07:30:30;102109.22;;;9.94;74.71
71778;BME280;59609;52.430;4.668;2023-04-20T07:32:56;102118.78;;;9.90;73.84
71778;BME280;59609;52.430;4.668;2023-04-20T07:35:21;102128.84;;;10.01;73.43
71778;BME280;59609;52.430;4.668;2023-04-20T07:37:47;102116.03;;;10.11;74.28
71778;BME280;59609;52.430;4.668;2023-04-20T07:40:12;102112.09;;;10.04;74.33
71778;BME280;59609;52.430;4.668;2023-04-20T07:42:38;102104.94;;;10.01;73.60
71778;BME280;59609;52.430;4.668;2023-04-20T07:45:04;102101.31;;;10.01;73.94
71778;BME280;59609;52.430;4.668;2023-04-20T07:47:30;102104.25;;;9.88;72.51
71778;BME280;59609;52.430;4.668;2023-04-20T07:49:55;102100.59;;;9.99;72.61
71778;BME280;59609;52.430;4.668;2023-04-20T07:52:23;102090.34;;;10.21;71.26
71778;BME280;59609;52.430;4.668;2023-04-20T07:54:48;102095.97;;;9.99;69.88
71778;BME280;59609;52.430;4.668;2023-04-20T07:57:13;102082.19;;;9.99;67.81
71778;BME280;59609;52.430;4.668;2023-04-20T07:59:39;102105.22;;;9.98;67.60
71778;BME280;59609;52.430;4.668;2023-04-20T08:02:05;102103.38;;;9.88;67.70
71778;BME280;59609;52.430;4.668;2023-04-20T08:04:30;102097.25;;;9.84;67.97
71778;BME280;59609;52.430;4.668;2023-04-20T08:06:56;102109.34;;;9.72;68.68
71778;BME280;59609;52.430;4.668;2023-04-20T08:09:21;102099.59;;;9.68;71.99
71778;BME280;59609;52.430;4.668;2023-04-20T08:11:47;102117.06;;;9.35;73.18
71778;BME280;59609;52.430;4.668;2023-04-20T08:14:13;102097.28;;;9.52;74.15
71778;BME280;59609;52.430;4.668;2023-04-20T08:16:39;102095.06;;;9.35;75.47
71778;BME280;59609;52.430;4.668;2023-04-20T08:19:04;102109.22;;;9.30;75.83
71778;BME280;59609;52.430;4.668;2023-04-20T08:21:36;102113.56;;;9.33;77.13
71778;BME280;59609;52.430;4.668;2023-04-20T08:24:02;102108.22;;;9.20;78.11
71778;BME280;59609;52.430;4.668;2023-04-20T08:26:28;102106.69;;;9.27;79.37
71778;BME280;59609;52.430;4.668;2023-04-20T08:28:54;102106.59;;;9.18;81.40
71778;BME280;59609;52.430;4.668;2023-04-20T08:31:19;102094.00;;;8.93;83.05
71778;BME280;59609;52.430;4.668;2023-04-20T08:33:45;102107.34;;;8.75;85.13
71778;BME280;59609;52.430;4.668;2023-04-20T08:36:11;102104.38;;;8.90;86.80
71778;BME280;59609;52.430;4.668;2023-04-20T08:38:36;102116.34;;;8.55;89.26
71778;BME280;59609;52.430;4.668;2023-04-20T08:41:02;102094.59;;;8.52;89.82
71778;BME280;59609;52.430;4.668;2023-04-20T08:43:28;102079.38;;;8.48;91.02
71778;BME280;59609;52.430;4.668;2023-04-20T08:45:56;102072.41;;;8.66;91.21
71778;BME280;59609;52.430;4.668;2023-04-20T08:48:24;102082.63;;;8.64;92.39
71778;BME280;59609;52.430;4.668;2023-04-20T08:50:49;102092.75;;;8.64;92.22
71778;BME280;59609;52.430;4.668;2023-04-20T08:53:15;102080.88;;;8.52;92.17
71778;BME280;59609;52.430;4.668;2023-04-20T08:55:40;102090.25;;;8.50;93.47
71778;BME280;59609;52.430;4.668;2023-04-20T08:58:06;102083.13;;;8.69;92.65
71778;BME280;59609;52.430;4.668;2023-04-20T09:00:31;102075.75;;;8.81;93.75
71778;BME280;59609;52.430;4.668;2023-04-20T09:02:57;102071.63;;;8.98;93.66
71778;BME280;59609;52.430;4.668;2023-04-20T09:05:28;102083.63;;;8.97;93.14
71778;BME280;59609;52.430;4.668;2023-04-20T09:07:58;102066.22;;;9.07;92.29
71778;BME280;59609;52.430;4.668;2023-04-20T09:10:25;102064.00;;;9.01;91.50
71778;BME280;59609;52.430;4.668;2023-04-20T09:12:51;102060.34;;;9.12;91.79
71778;BME280;59609;52.430;4.668;2023-04-20T09:15:25;102059.84;;;9.18;91.75
71778;BME280;59609;52.430;4.668;2023-04-20T09:17:50;102061.38;;;8.89;92.23
71778;BME280;59609;52.430;4.668;2023-04-20T09:20:26;102067.25;;;8.84;92.29
71778;BME280;59609;52.430;4.668;2023-04-20T09:22:51;102062.13;;;8.91;92.49
71778;BME280;59609;52.430;4.668;2023-04-20T09:25:18;102054.25;;;9.08;91.41
71778;BME280;59609;52.430;4.668;2023-04-20T09:27:58;102047.84;;;9.19;91.87
71778;BME280;59609;52.430;4.668;2023-04-20T09:30:31;102029.63;;;9.50;90.86
71778;BME280;59609;52.430;4.668;2023-04-20T09:33:04;102033.72;;;9.87;89.72
71778;BME280;59609;52.430;4.668;2023-04-20T09:35:32;102030.28;;;9.74;89.82
71778;BME280;59609;52.430;4.668;2023-04-20T09:37:57;102031.63;;;9.79;88.47
71778;BME280;59609;52.430;4.668;2023-04-20T09:40:26;102033.75;;;10.59;88.44
71778;BME280;59609;52.430;4.668;2023-04-20T09:42:57;102032.75;;;10.60;89.54
71778;BME280;59609;52.430;4.668;2023-04-20T09:45:26;102037.81;;;10.64;87.74
71778;BME280;59609;52.430;4.668;2023-04-20T09:47:52;102040.06;;;10.70;87.34
71778;BME280;59609;52.430;4.668;2023-04-20T09:50:19;102029.22;;;10.58;86.20
71778;BME280;59609;52.430;4.668;2023-04-20T09:52:45;102030.47;;;10.74;85.66
71778;BME280;59609;52.430;4.668;2023-04-20T09:55:13;102041.75;;;10.41;86.12
71778;BME280;59609;52.430;4.668;2023-04-20T09:57:39;102046.84;;;10.15;85.42
71778;BME280;59609;52.430;4.668;2023-04-20T10:00:06;102046.06;;;9.93;85.37
71778;BME280;59609;52.430;4.668;2023-04-20T10:02:35;102033.81;;;9.65;86.14
71778;BME280;59609;52.430;4.668;2023-04-20T10:05:01;102024.94;;;9.61;86.76
71778;BME280;59609;52.430;4.668;2023-04-20T10:07:31;102033.25;;;9.50;87.32
71778;BME280;59609;52.430;4.668;2023-04-20T10:10:12;102032.66;;;9.47;86.82
71778;BME280;59609;52.430;4.668;2023-04-20T10:12:51;102022.25;;;9.71;87.75
71778;BME280;59609;52.430;4.668;2023-04-20T10:15:17;102025.97;;;9.60;86.90
71778;BME280;59609;52.430;4.668;2023-04-20T10:17:43;102021.81;;;9.66;86.87
71778;BME280;59609;52.430;4.668;2023-04-20T10:20:25;102023.72;;;10.07;87.23
71778;BME280;59609;52.430;4.668;2023-04-20T10:22:51;102015.88;;;10.23;86.22
71778;BME280;59609;52.430;4.668;2023-04-20T10:25:21;102011.28;;;10.33;84.71
71778;BME280;59609;52.430;4.668;2023-04-20T10:27:57;102008.00;;;10.79;84.67
71778;BME280;59609;52.430;4.668;2023-04-20T10:30:25;102003.94;;;10.43;84.56
71778;BME280;59609;52.430;4.668;2023-04-20T10:33:11;102013.41;;;10.20;83.35
71778;BME280;59609;52.430;4.668;2023-04-20T10:38:12;102022.91;;;10.37;83.57
71778;BME280;59609;52.430;4.668;2023-04-20T10:40:38;102026.41;;;10.18;83.25
71778;BME280;59609;52.430;4.668;2023-04-20T10:43:03;102011.38;;;10.52;82.84
71778;BME280;59609;52.430;4.668;2023-04-20T10:45:33;102008.53;;;10.33;81.94
71778;BME280;59609;52.430;4.668;2023-04-20T10:48:08;102003.78;;;10.75;82.10
71778;BME280;59609;52.430;4.668;2023-04-20T10:50:34;102005.47;;;11.06;80.10
71778;BME280;59609;52.430;4.668;2023-04-20T10:53:00;102011.31;;;11.32;80.55
71778;BME280;59609;52.430;4.668;2023-04-20T10:55:25;102002.34;;;11.30;78.95
71778;BME280;59609;52.430;4.668;2023-04-20T10:57:51;102008.16;;;11.46;78.98
71778;BME280;59609;52.430;4.668;2023-04-20T11:00:25;101995.94;;;11.58;77.69
71778;BME280;59609;52.430;4.668;2023-04-20T11:02:52;102013.13;;;12.00;77.84
71778;BME280;59609;52.430;4.668;2023-04-20T11:05:18;101999.75;;;11.67;77.49
71778;BME280;59609;52.430;4.668;2023-04-20T11:10:12;102012.41;;;12.54;74.92
71778;BME280;59609;52.430;4.668;2023-04-20T11:12:38;102000.72;;;12.23;73.94
71778;BME280;59609;52.430;4.668;2023-04-20T11:15:04;102008.19;;;11.94;74.19
71778;BME280;59609;52.430;4.668;2023-04-20T11:17:34;102001.75;;;11.65;74.82
71778;BME280;59609;52.430;4.668;2023-04-20T11:20:13;102004.38;;;11.66;76.28
71778;BME280;59609;52.430;4.668;2023-04-20T11:22:42;102004.06;;;12.08;74.95
71778;BME280;59609;52.430;4.668;2023-04-20T11:25:09;101991.84;;;12.20;72.66
71778;BME280;59609;52.430;4.668;2023-04-20T11:27:36;101981.09;;;12.81;72.39
71778;BME280;59609;52.430;4.668;2023-04-20T11:30:03;101995.81;;;12.54;71.66
71778;BME280;59609;52.430;4.668;2023-04-20T11:32:33;101974.13;;;13.49;71.86
71778;BME280;59609;52.430;4.668;2023-04-20T11:35:06;101975.94;;;13.58;68.93
71778;BME280;59609;52.430;4.668;2023-04-20T11:37:32;101979.50;;;13.33;68.34
71778;BME280;59609;52.430;4.668;2023-04-20T11:40:03;101976.63;;;12.98;68.49
71778;BME280;59609;52.430;4.668;2023-04-20T11:42:31;101963.03;;;12.86;67.73
71778;BME280;59609;52.430;4.668;2023-04-20T11:44:57;101972.47;;;12.94;68.77
71778;BME280;59609;52.430;4.668;2023-04-20T11:47:22;101965.88;;;13.22;68.26
71778;BME280;59609;52.430;4.668;2023-04-20T11:49:48;101959.81;;;13.36;67.16
71778;BME280;59609;52.430;4.668;2023-04-20T11:52:13;101957.38;;;13.51;66.18
71778;BME280;59609;52.430;4.668;2023-04-20T11:54:39;101945.72;;;13.65;67.17
71778;BME280;59609;52.430;4.668;2023-04-20T11:57:04;101957.22;;;13.96;65.68
71778;BME280;59609;52.430;4.668;2023-04-20T11:59:29;101951.09;;;13.31;67.27
71778;BME280;59609;52.430;4.668;2023-04-20T12:01:55;101951.59;;;12.99;66.11
71778;BME280;59609;52.430;4.668;2023-04-20T12:04:20;101944.88;;;12.84;66.11
71778;BME280;59609;52.430;4.668;2023-04-20T12:06:45;101944.41;;;13.06;66.84
71778;BME280;59609;52.430;4.668;2023-04-20T12:09:11;101940.59;;;13.96;64.18
71778;BME280;59609;52.430;4.668;2023-04-20T12:11:37;101935.41;;;13.75;63.49
71778;BME280;59609;52.430;4.668;2023-04-20T12:14:02;101941.78;;;14.19;65.03
71778;BME280;59609;52.430;4.668;2023-04-20T12:16:29;101941.03;;;14.09;63.33
71778;BME280;59609;52.430;4.668;2023-04-20T12:18:54;101938.75;;;14.30;62.85
71778;BME280;59609;52.430;4.668;2023-04-20T12:21:20;101926.44;;;14.58;62.04
71778;BME280;59609;52.430;4.668;2023-04-20T12:23:45;101934.66;;;14.34;60.38
71778;BME280;59609;52.430;4.668;2023-04-20T12:26:13;101931.09;;;13.98;60.43
71778;BME280;59609;52.430;4.668;2023-04-20T12:28:38;101928.75;;;14.11;62.24
71778;BME280;59609;52.430;4.668;2023-04-20T12:31:04;101926.53;;;13.89;61.86
71778;BME280;59609;52.430;4.668;2023-04-20T12:33:29;101927.66;;;13.78;62.53
71778;BME280;59609;52.430;4.668;2023-04-20T12:35:55;101931.09;;;13.55;63.50
71778;BME280;59609;52.430;4.668;2023-04-20T12:38:20;101933.16;;;13.35;62.75
71778;BME280;59609;52.430;4.668;2023-04-20T12:40:46;101922.41;;;13.50;62.32
71778;BME280;59609;52.430;4.668;2023-04-20T12:43:11;101909.34;;;13.60;61.46
71778;BME280;59609;52.430;4.668;2023-04-20T12:45:36;101925.22;;;14.01;61.50
71778;BME280;59609;52.430;4.668;2023-04-20T12:48:02;101914.97;;;14.87;59.70
71778;BME280;59609;52.430;4.668;2023-04-20T12:50:28;101921.97;;;14.57;60.41
71778;BME280;59609;52.430;4.668;2023-04-20T12:52:53;101917.53;;;14.80;57.75
71778;BME280;59609;52.430;4.668;2023-04-20T12:55:23;101921.59;;;14.01;57.79
71778;BME280;59609;52.430;4.668;2023-04-20T12:57:49;101905.56;;;13.86;60.40